createdAt,value
2022-08-03T00:01:24.949Z,24.06
2022-08-03T00:03:51.672Z,23.97
2022-08-03T00:06:18.441Z,23.95
2022-08-03T00:08:45.409Z,23.95
2022-08-03T00:11:12.324Z,23.88
2022-08-03T00:13:39.089Z,23.86
2022-08-03T00:16:07.388Z,23.84
2022-08-03T00:18:34.152Z,23.78
2022-08-03T00:21:00.897Z,23.76
2022-08-03T00:23:33.123Z,23.76
2022-08-03T00:26:14.655Z,23.67
2022-08-03T00:28:42.120Z,23.65
2022-08-03T00:31:08.844Z,23.64
2022-08-03T00:33:57.988Z,23.61
2022-08-03T00:36:27.168Z,23.58
2022-08-03T00:38:54.028Z,23.57
2022-08-03T00:41:20.838Z,23.52
2022-08-03T00:43:47.887Z,23.45
2022-08-03T00:46:20.543Z,23.44
2022-08-03T00:48:49.324Z,23.42
2022-08-03T00:51:16.144Z,23.40
2022-08-03T00:53:42.916Z,23.40
2022-08-03T00:56:09.892Z,23.30
2022-08-03T00:58:36.632Z,23.31
2022-08-03T01:01:07.175Z,23.29
2022-08-03T01:03:34.554Z,23.25
2022-08-03T01:06:40.058Z,23.22
2022-08-03T01:09:09.668Z,23.16
2022-08-03T01:12:00.250Z,23.11
2022-08-03T01:14:35.482Z,23.10
2022-08-03T01:17:02.266Z,23.08
2022-08-03T01:19:29.271Z,23.05
2022-08-03T01:21:55.996Z,23.03
2022-08-03T01:24:43.663Z,22.99
2022-08-03T01:27:10.692Z,22.94
2022-08-03T01:29:56.019Z,22.91
2022-08-03T01:32:59.921Z,22.85
2022-08-03T01:35:28.090Z,22.83
2022-08-03T01:37:58.547Z,22.81
2022-08-03T01:40:25.699Z,22.75
2022-08-03T01:42:52.654Z,22.77
2022-08-03T01:45:19.709Z,22.75
2022-08-03T01:47:46.901Z,22.71
2022-08-03T01:50:13.710Z,22.68
2022-08-03T01:52:41.709Z,22.64
2022-08-03T01:55:09.020Z,22.60
2022-08-03T01:57:36.097Z,22.58
2022-08-03T02:00:23.381Z,22.54
2022-08-03T02:02:50.616Z,22.54
2022-08-03T02:05:17.500Z,22.52
2022-08-03T02:07:44.514Z,22.44
2022-08-03T02:10:11.886Z,22.39
2022-08-03T02:12:38.957Z,22.36
2022-08-03T02:15:06.113Z,22.37
2022-08-03T02:17:39.160Z,22.31
2022-08-03T02:20:08.311Z,22.28
2022-08-03T02:22:35.079Z,22.23
2022-08-03T02:25:01.821Z,22.20
2022-08-03T02:27:28.819Z,22.20
2022-08-03T02:29:59.064Z,22.16
2022-08-03T02:32:29.212Z,22.10
2022-08-03T02:34:56.306Z,22.08
2022-08-03T02:37:23.976Z,22.10
2022-08-03T02:39:53.359Z,22.08
2022-08-03T02:42:20.874Z,22.02
2022-08-03T02:44:49.285Z,22.04
2022-08-03T02:47:16.171Z,22.01
2022-08-03T02:49:50.545Z,21.96
2022-08-03T02:52:22.083Z,21.85
2022-08-03T02:54:51.204Z,21.82
2022-08-03T02:57:19.471Z,21.77
2022-08-03T02:59:46.251Z,21.77
2022-08-03T03:02:14.234Z,21.76
2022-08-03T03:04:45.084Z,21.81
2022-08-03T03:07:28.861Z,21.74
2022-08-03T03:09:58.018Z,21.67
2022-08-03T03:12:24.849Z,21.70
2022-08-03T03:14:51.996Z,21.65
2022-08-03T03:17:18.729Z,21.63
2022-08-03T03:19:45.678Z,21.54
2022-08-03T03:22:12.718Z,21.62
2022-08-03T03:24:39.477Z,21.62
2022-08-03T03:27:06.306Z,21.59
2022-08-03T03:29:39.253Z,21.55
2022-08-03T03:32:09.124Z,21.57
2022-08-03T03:34:36.425Z,21.54
2022-08-03T03:37:03.277Z,21.51
2022-08-03T03:39:30.018Z,21.44
2022-08-03T03:41:57.605Z,21.43
2022-08-03T03:44:30.529Z,21.44
2022-08-03T03:47:00.281Z,21.42
2022-08-03T03:49:27.404Z,21.35
2022-08-03T03:51:54.968Z,21.39
2022-08-03T03:54:21.835Z,21.31
2022-08-03T03:56:52.597Z,21.32
2022-08-03T03:59:19.409Z,21.31
2022-08-03T04:01:46.228Z,21.35
2022-08-03T04:04:31.880Z,21.28
2022-08-03T04:07:17.433Z,21.20
2022-08-03T04:10:14.506Z,21.19
2022-08-03T04:12:50.184Z,21.16
2022-08-03T04:15:19.004Z,21.15
2022-08-03T04:17:45.830Z,21.10
2022-08-03T04:20:12.575Z,21.09
2022-08-03T04:22:40.299Z,21.12
2022-08-03T04:25:08.364Z,21.12
2022-08-03T04:27:36.516Z,21.07
2022-08-03T04:30:04.689Z,21.13
2022-08-03T04:32:31.395Z,21.12
2022-08-03T04:34:58.202Z,21.09
2022-08-03T04:37:43.202Z,21.15
2022-08-03T04:40:11.027Z,21.22
2022-08-03T04:42:38.274Z,21.36
2022-08-03T04:45:05.355Z,21.37
2022-08-03T04:47:32.458Z,21.30
2022-08-03T04:50:00.685Z,21.31
2022-08-03T04:52:27.454Z,21.34
2022-08-03T04:54:54.193Z,21.41
2022-08-03T04:57:22.098Z,21.44
2022-08-03T04:59:58.216Z,21.47
2022-08-03T05:02:29.013Z,21.55
2022-08-03T05:04:55.810Z,21.55
2022-08-03T05:07:25.072Z,21.55
2022-08-03T05:09:57.560Z,21.60
2022-08-03T05:12:32.525Z,21.59
2022-08-03T05:15:00.357Z,21.60
2022-08-03T05:17:27.093Z,21.63
2022-08-03T05:19:54.018Z,21.66
2022-08-03T05:22:21.660Z,21.70
2022-08-03T05:24:48.884Z,21.75
2022-08-03T05:27:19.574Z,21.81
2022-08-03T05:29:46.794Z,21.83
2022-08-03T05:32:13.676Z,21.88
2022-08-03T05:34:40.411Z,21.93
2022-08-03T05:37:07.526Z,21.98
2022-08-03T05:39:34.799Z,22.04
2022-08-03T05:42:01.752Z,22.12
2022-08-03T05:44:28.787Z,22.15
2022-08-03T05:46:57.671Z,22.21
2022-08-03T05:49:24.528Z,22.33
2022-08-03T05:52:00.090Z,22.39
2022-08-03T05:54:56.711Z,22.47
2022-08-03T05:57:25.287Z,22.54
2022-08-03T05:59:53.922Z,22.63
2022-08-03T06:02:25.187Z,22.69
2022-08-03T06:04:52.004Z,22.79
2022-08-03T06:07:18.782Z,22.87
2022-08-03T06:10:33.310Z,22.95
2022-08-03T06:12:36.090Z,23.03
2022-08-03T06:15:04.022Z,23.11
2022-08-03T06:17:37.761Z,23.19
2022-08-03T06:20:05.737Z,23.27
2022-08-03T06:22:32.495Z,23.37
2022-08-03T06:25:03.676Z,23.45
2022-08-03T06:27:36.499Z,23.52
2022-08-03T06:30:04.695Z,23.62
2022-08-03T06:32:31.449Z,23.69
2022-08-03T06:34:58.428Z,23.80
2022-08-03T06:37:25.160Z,23.86
2022-08-03T06:39:51.915Z,23.95
2022-08-03T06:42:19.118Z,24.03
2022-08-03T06:44:47.516Z,24.12
2022-08-03T06:47:14.316Z,24.18
2022-08-03T06:49:41.801Z,24.25
2022-08-03T06:52:08.669Z,24.32
2022-08-03T06:54:36.040Z,24.39
2022-08-03T06:57:03.736Z,24.45
2022-08-03T07:00:10.995Z,24.53
2022-08-03T07:02:19.611Z,24.64
2022-08-03T07:04:49.697Z,24.73
2022-08-03T07:07:17.431Z,24.83
2022-08-03T07:09:57.193Z,24.92
2022-08-03T07:12:25.208Z,25.05
2022-08-03T07:14:55.509Z,25.09
2022-08-03T07:17:24.928Z,25.18
2022-08-03T07:19:51.650Z,25.30
2022-08-03T07:22:18.988Z,25.42
2022-08-03T07:24:46.741Z,25.55
2022-08-03T07:27:13.553Z,25.65
2022-08-03T07:29:40.507Z,25.76
2022-08-03T07:32:07.327Z,25.84
2022-08-03T07:34:34.152Z,25.94
2022-08-03T07:37:01.131Z,26.08
2022-08-03T07:39:27.890Z,26.20
2022-08-03T07:41:54.662Z,26.27
2022-08-03T07:44:21.716Z,26.41
2022-08-03T07:46:48.530Z,26.51
2022-08-03T07:49:15.361Z,26.63
2022-08-03T07:51:42.391Z,26.67
2022-08-03T07:54:10.272Z,26.81
2022-08-03T07:56:37.243Z,26.91
2022-08-03T07:59:04.271Z,27.05
2022-08-03T08:01:32.953Z,27.14
2022-08-03T08:03:59.731Z,27.25
2022-08-03T08:06:26.848Z,27.35
2022-08-03T08:08:54.053Z,27.49
2022-08-03T08:11:22.303Z,27.56
2022-08-03T08:13:49.378Z,27.66
2022-08-03T08:16:16.761Z,27.80
2022-08-03T08:18:43.552Z,27.90
2022-08-03T08:21:10.663Z,28.02
2022-08-03T08:23:42.436Z,28.11
2022-08-03T08:26:11.479Z,28.18
2022-08-03T08:28:38.290Z,28.28
2022-08-03T08:31:05.137Z,28.41
2022-08-03T08:33:54.334Z,28.49
2022-08-03T08:36:19.374Z,28.61
2022-08-03T08:38:46.450Z,28.70
2022-08-03T08:41:13.584Z,28.79
2022-08-03T08:43:40.311Z,28.88
2022-08-03T08:46:10.479Z,28.98
2022-08-03T08:48:38.892Z,29.05
2022-08-03T08:51:05.650Z,29.14
2022-08-03T08:53:33.746Z,29.28
2022-08-03T08:56:01.247Z,29.30
2022-08-03T08:58:35.023Z,29.41
2022-08-03T09:01:02.060Z,29.52
2022-08-03T09:03:30.362Z,29.56
2022-08-03T09:06:01.059Z,29.67
2022-08-03T09:08:29.013Z,29.70
2022-08-03T09:10:55.822Z,29.81
2022-08-03T09:13:22.839Z,29.87
2022-08-03T09:16:00.907Z,30.00
2022-08-03T09:18:30.576Z,30.10
2022-08-03T09:21:34.181Z,30.20
2022-08-03T09:24:04.776Z,30.39
2022-08-03T09:26:35.907Z,30.46
2022-08-03T09:29:16.771Z,30.57
2022-08-03T09:31:44.945Z,30.66
2022-08-03T09:34:12.929Z,30.73
2022-08-03T09:36:49.029Z,30.87
2022-08-03T09:39:17.008Z,30.95
2022-08-03T09:41:44.895Z,31.05
2022-08-03T09:44:24.288Z,31.13
2022-08-03T09:46:58.657Z,31.23
2022-08-03T09:49:25.648Z,31.34
2022-08-03T09:52:31.329Z,31.38
2022-08-03T09:54:42.016Z,31.53
2022-08-03T09:57:09.052Z,31.54
2022-08-03T09:59:35.818Z,31.71
2022-08-03T10:02:06.235Z,31.84
2022-08-03T10:04:32.993Z,31.88
2022-08-03T10:07:06.647Z,31.95
2022-08-03T10:09:33.770Z,32.16
2022-08-03T10:12:10.598Z,32.18
2022-08-03T10:14:41.984Z,32.27
2022-08-03T10:17:11.854Z,32.34
2022-08-03T10:19:38.996Z,32.50
2022-08-03T10:22:23.956Z,32.66
2022-08-03T10:24:59.485Z,32.66
2022-08-03T10:27:27.159Z,32.84
2022-08-03T10:29:55.564Z,32.86
2022-08-03T10:32:24.638Z,32.96
2022-08-03T10:34:52.157Z,33.10
2022-08-03T10:37:28.081Z,33.16
2022-08-03T10:39:55.023Z,33.18
2022-08-03T10:42:26.451Z,33.31
2022-08-03T10:44:56.755Z,33.34
2022-08-03T10:47:23.533Z,33.31
2022-08-03T10:49:50.415Z,33.52
2022-08-03T10:52:32.590Z,33.62
2022-08-03T10:55:21.472Z,33.70
2022-08-03T10:57:56.204Z,33.79
2022-08-03T11:00:26.459Z,33.88
2022-08-03T11:03:10.028Z,33.94
2022-08-03T11:05:37.834Z,33.97
2022-08-03T11:08:23.586Z,34.07
2022-08-03T11:10:50.895Z,34.11
2022-08-03T11:13:21.518Z,34.13
2022-08-03T11:15:48.950Z,34.19
2022-08-03T11:18:15.787Z,34.28
2022-08-03T11:20:50.179Z,34.28
2022-08-03T11:23:17.617Z,34.36
2022-08-03T11:26:17.458Z,34.45
2022-08-03T11:28:45.070Z,34.61
2022-08-03T11:31:48.784Z,34.67
2022-08-03T11:34:15.012Z,34.71
2022-08-03T11:37:00.355Z,34.75
2022-08-03T11:39:40.402Z,34.87
2022-08-03T11:42:22.911Z,34.95
2022-08-03T11:44:50.336Z,34.99
2022-08-03T11:47:18.097Z,34.99
2022-08-03T11:49:48.198Z,35.09
2022-08-03T11:52:15.139Z,35.19
2022-08-03T11:54:42.500Z,35.27
2022-08-03T11:57:09.406Z,35.27
2022-08-03T11:59:38.524Z,35.25
2022-08-03T12:02:09.013Z,35.32
2022-08-03T12:04:54.008Z,35.40
2022-08-03T12:07:25.054Z,35.43
2022-08-03T12:10:12.177Z,35.47
2022-08-03T12:12:42.237Z,35.59
2022-08-03T12:15:13.021Z,35.56
2022-08-03T12:17:41.009Z,35.62
2022-08-03T12:20:08.424Z,35.63
2022-08-03T12:22:35.766Z,35.71
2022-08-03T12:25:03.361Z,35.78
2022-08-03T12:27:30.167Z,35.85
2022-08-03T12:29:58.954Z,35.94
2022-08-03T12:32:29.419Z,36.00
2022-08-03T12:35:00.048Z,36.06
2022-08-03T12:37:27.379Z,36.10
2022-08-03T12:40:02.405Z,36.13
2022-08-03T12:42:39.083Z,36.15
2022-08-03T12:45:21.396Z,36.22
2022-08-03T12:48:00.900Z,36.28
2022-08-03T12:50:31.470Z,36.35
2022-08-03T12:52:59.198Z,36.38
2022-08-03T12:55:56.556Z,36.40
2022-08-03T12:58:33.777Z,36.39
2022-08-03T13:01:01.262Z,36.47
2022-08-03T13:03:42.706Z,36.54
2022-08-03T13:06:16.654Z,36.59
2022-08-03T13:08:44.205Z,36.63
2022-08-03T13:11:20.820Z,36.68
2022-08-03T13:13:48.073Z,36.75
2022-08-03T13:16:19.161Z,36.76
2022-08-03T13:18:49.298Z,36.81
2022-08-03T13:21:16.418Z,36.82
2022-08-03T13:23:43.279Z,36.87
2022-08-03T13:26:10.519Z,36.91
2022-08-03T13:28:37.955Z,36.92
2022-08-03T13:31:04.746Z,36.99
2022-08-03T13:33:33.894Z,37.01
2022-08-03T13:36:00.943Z,37.02
2022-08-03T13:38:27.827Z,37.04
2022-08-03T13:40:55.288Z,37.07
2022-08-03T13:43:23.369Z,37.08
2022-08-03T13:45:53.561Z,37.09
2022-08-03T13:48:35.989Z,37.12
2022-08-03T13:51:11.864Z,37.12
2022-08-03T13:53:50.306Z,37.12
2022-08-03T13:56:17.304Z,37.10
2022-08-03T13:58:44.199Z,37.12
2022-08-03T14:01:11.367Z,37.15
2022-08-03T14:03:38.511Z,37.17
2022-08-03T14:06:05.275Z,37.17
2022-08-03T14:08:32.046Z,37.08
2022-08-03T14:10:59.179Z,37.14
2022-08-03T14:13:25.899Z,37.12
2022-08-03T14:15:52.705Z,37.18
2022-08-03T14:18:28.535Z,37.19
2022-08-03T14:21:05.489Z,37.18
2022-08-03T14:23:33.413Z,37.21
2022-08-03T14:26:00.460Z,37.20
2022-08-03T14:28:27.233Z,37.15
2022-08-03T14:30:54.579Z,37.14
2022-08-03T14:33:21.518Z,37.20
2022-08-03T14:35:48.467Z,37.20
2022-08-03T14:38:15.650Z,37.17
2022-08-03T14:40:42.501Z,37.13
2022-08-03T14:43:09.318Z,37.22
2022-08-03T14:45:36.286Z,37.24
2022-08-03T14:50:29.530Z,37.21
2022-08-03T14:50:52.682Z,37.22
2022-08-03T14:53:19.832Z,37.21
2022-08-03T14:55:50.618Z,37.22
2022-08-03T14:58:22.432Z,37.20
2022-08-03T15:00:49.962Z,37.17
2022-08-03T15:03:17.607Z,37.20
2022-08-03T15:05:44.754Z,37.17
2022-08-03T15:08:11.664Z,37.14
2022-08-03T15:10:40.368Z,37.12
2022-08-03T15:13:12.252Z,37.16
2022-08-03T15:15:39.113Z,37.14
2022-08-03T15:18:05.880Z,37.12
2022-08-03T15:20:43.808Z,37.12
2022-08-03T15:23:12.426Z,37.03
2022-08-03T15:26:28.678Z,37.03
2022-08-03T15:28:26.211Z,37.06
2022-08-03T15:30:53.301Z,37.06
2022-08-03T15:33:20.276Z,37.04
2022-08-03T15:35:47.756Z,37.03
2022-08-03T15:38:14.960Z,37.00
2022-08-03T15:40:41.805Z,36.99
2022-08-03T15:43:08.738Z,36.96
2022-08-03T15:45:36.249Z,36.91
2022-08-03T15:48:04.679Z,36.84
2022-08-03T15:50:31.450Z,36.79
2022-08-03T15:52:58.403Z,36.82
2022-08-03T15:55:25.245Z,36.82
2022-08-03T15:59:10.001Z,36.81
2022-08-03T16:00:39.630Z,36.77
2022-08-03T16:03:06.435Z,36.70
2022-08-03T16:05:33.264Z,36.69
2022-08-03T16:08:03.572Z,36.65
2022-08-03T16:10:31.593Z,36.60
2022-08-03T16:13:01.345Z,36.58
2022-08-03T16:15:28.511Z,36.56
2022-08-03T16:17:55.322Z,36.51
2022-08-03T16:20:31.261Z,36.47
2022-08-03T16:23:06.287Z,36.45
2022-08-03T16:25:42.023Z,36.44
2022-08-03T16:28:13.932Z,36.37
2022-08-03T16:30:44.510Z,36.30
2022-08-03T16:33:11.799Z,36.30
2022-08-03T16:35:44.865Z,36.28
2022-08-03T16:38:16.592Z,36.22
2022-08-03T16:40:47.158Z,36.17
2022-08-03T16:43:19.016Z,36.12
2022-08-03T16:45:46.536Z,36.10
2022-08-03T16:48:13.467Z,36.08
2022-08-03T16:50:40.227Z,36.02
2022-08-03T16:53:09.117Z,35.98
2022-08-03T16:55:48.477Z,35.96
2022-08-03T16:58:34.379Z,35.89
2022-08-03T17:01:20.845Z,35.88
2022-08-03T17:04:01.575Z,35.84
2022-08-03T17:06:34.294Z,35.80
2022-08-03T17:09:03.376Z,35.73
2022-08-03T17:11:32.936Z,35.71
2022-08-03T17:14:00.172Z,35.60
2022-08-03T17:16:27.180Z,35.47
2022-08-03T17:18:58.675Z,35.51
2022-08-03T17:21:30.958Z,35.49
2022-08-03T17:24:00.025Z,35.46
2022-08-03T17:26:30.371Z,35.42
2022-08-03T17:28:58.454Z,35.38
2022-08-03T17:31:32.207Z,35.34
2022-08-03T17:34:12.474Z,35.29
2022-08-03T17:37:03.111Z,35.25
2022-08-03T17:39:48.427Z,35.19
2022-08-03T17:42:30.343Z,35.14
2022-08-03T17:45:02.296Z,35.10
2022-08-03T17:47:42.033Z,35.04
2022-08-03T17:50:24.832Z,35.00
2022-08-03T17:55:59.435Z,34.87
2022-08-03T17:58:37.230Z,34.83
2022-08-03T18:02:00.275Z,34.78
2022-08-03T18:04:12.670Z,34.71
2022-08-03T18:06:56.591Z,34.66
2022-08-03T18:10:06.764Z,34.62
2022-08-03T18:12:14.303Z,34.55
2022-08-03T18:14:57.694Z,34.48
2022-08-03T18:17:54.585Z,34.43
2022-08-03T18:20:32.808Z,34.33
2022-08-03T18:23:04.997Z,34.24
2022-08-03T18:25:45.554Z,34.14
2022-08-03T18:28:18.947Z,34.07
2022-08-03T18:30:53.551Z,33.97
2022-08-03T18:34:19.856Z,33.86
2022-08-03T18:36:10.446Z,33.79
2022-08-03T18:38:40.898Z,33.78
2022-08-03T18:41:12.701Z,33.60
2022-08-03T18:44:06.812Z,33.39
2022-08-03T18:46:43.166Z,33.15
2022-08-03T18:49:11.422Z,33.10
2022-08-03T18:51:43.481Z,33.06
2022-08-03T18:54:46.692Z,33.00
2022-08-03T18:57:07.761Z,32.91
2022-08-03T18:59:38.590Z,32.86
2022-08-03T19:02:06.091Z,32.74
2022-08-03T19:04:45.465Z,32.68
2022-08-03T19:07:14.666Z,32.58
2022-08-03T19:09:44.420Z,32.51
2022-08-03T19:12:37.433Z,32.39
2022-08-03T19:15:10.562Z,32.35
2022-08-03T19:17:40.276Z,32.30
2022-08-03T19:20:09.156Z,32.24
2022-08-03T19:22:37.172Z,32.18
2022-08-03T19:25:04.598Z,32.14
2022-08-03T19:27:31.571Z,32.07
2022-08-03T19:30:02.913Z,32.03
2022-08-03T19:32:31.289Z,31.97
2022-08-03T19:34:59.582Z,31.91
2022-08-03T19:37:38.413Z,31.85
2022-08-03T19:40:10.429Z,31.77
2022-08-03T19:42:38.032Z,31.72
2022-08-03T19:45:11.461Z,31.65
2022-08-03T19:48:09.977Z,31.52
2022-08-03T19:50:37.437Z,31.43
2022-08-03T19:53:12.267Z,31.34
2022-08-03T19:55:48.952Z,31.25
2022-08-03T19:58:17.810Z,31.22
2022-08-03T20:00:51.436Z,31.17
2022-08-03T20:03:21.844Z,31.08
2022-08-03T20:05:51.999Z,31.05
2022-08-03T20:08:21.257Z,30.95
2022-08-03T20:10:48.047Z,30.88
2022-08-03T20:13:16.098Z,30.83
2022-08-03T20:15:46.519Z,30.77
2022-08-03T20:18:16.918Z,30.71
2022-08-03T20:20:43.912Z,30.63
2022-08-03T20:23:15.997Z,30.58
2022-08-03T20:25:57.420Z,30.49
2022-08-03T20:28:31.013Z,30.41
2022-08-03T20:30:58.224Z,30.33
2022-08-03T20:33:27.924Z,30.29
2022-08-03T20:36:13.693Z,30.24
2022-08-03T20:38:46.881Z,30.15
2022-08-03T20:41:14.549Z,30.05
2022-08-03T20:43:41.594Z,30.03
2022-08-03T20:46:31.913Z,29.94
2022-08-03T20:48:56.033Z,29.92
2022-08-03T20:51:49.497Z,29.89
2022-08-03T20:54:20.830Z,29.81
2022-08-03T20:56:57.193Z,29.76
2022-08-03T20:59:28.869Z,29.69
2022-08-03T21:01:57.216Z,29.67
2022-08-03T21:04:24.540Z,29.60
2022-08-03T21:06:56.018Z,29.54
2022-08-03T21:09:24.566Z,29.52
2022-08-03T21:12:01.416Z,29.41
2022-08-03T21:12:55.594Z,34.94
2022-08-03T21:14:45.340Z,29.37
2022-08-03T21:17:25.104Z,29.32
2022-08-03T21:19:58.248Z,29.25
2022-08-03T21:22:25.257Z,29.18
2022-08-03T21:24:54.417Z,29.16
2022-08-03T21:27:23.560Z,29.02
2022-08-03T21:29:52.866Z,29.03
2022-08-03T21:32:30.035Z,28.94
2022-08-03T21:35:00.532Z,28.90
2022-08-03T21:37:27.300Z,28.86
2022-08-03T21:39:54.577Z,28.82
2022-08-03T21:42:23.879Z,28.75
2022-08-03T21:44:53.523Z,28.72
2022-08-03T21:47:23.967Z,28.65
2022-08-03T21:50:08.663Z,28.57
2022-08-03T21:52:42.912Z,28.50
2022-08-03T21:55:20.694Z,28.44
2022-08-03T21:57:50.790Z,28.45
2022-08-03T22:00:18.366Z,28.35
2022-08-03T22:02:45.549Z,28.31
2022-08-03T22:05:28.138Z,28.23
2022-08-03T22:08:07.650Z,28.17
2022-08-03T22:10:34.609Z,28.17
2022-08-03T22:13:01.374Z,28.07
2022-08-03T22:15:28.114Z,28.06
2022-08-03T22:17:57.165Z,27.93
2022-08-03T22:20:24.282Z,27.97
2022-08-03T22:22:55.757Z,27.92
2022-08-03T22:25:30.848Z,27.91
2022-08-03T22:28:01.686Z,27.86
2022-08-03T22:30:28.891Z,27.85
2022-08-03T22:32:56.408Z,27.79
2022-08-03T22:35:24.513Z,27.76
2022-08-03T22:37:52.777Z,27.71
2022-08-03T22:40:19.540Z,27.66
2022-08-03T22:42:46.408Z,27.61
2022-08-03T22:46:07.796Z,27.56
2022-08-03T22:48:00.360Z,27.52
2022-08-03T22:50:33.530Z,27.49
2022-08-03T22:53:00.809Z,27.42
2022-08-03T22:55:27.556Z,27.37
2022-08-03T22:57:56.100Z,27.34
2022-08-03T23:00:23.169Z,27.28
2022-08-03T23:02:49.972Z,27.24
2022-08-03T23:06:01.087Z,27.19
2022-08-03T23:08:04.776Z,27.13
2022-08-03T23:10:31.756Z,27.10
2022-08-03T23:12:58.605Z,27.05
2022-08-03T23:15:25.352Z,27.02
2022-08-03T23:17:57.807Z,26.98
2022-08-03T23:20:26.621Z,26.92
2022-08-03T23:22:54.309Z,26.89
2022-08-03T23:25:22.098Z,26.83
2022-08-03T23:27:49.224Z,26.78
2022-08-03T23:30:34.169Z,26.77
2022-08-03T23:33:00.941Z,26.73
2022-08-03T23:36:18.755Z,26.67
2022-08-03T23:38:36.353Z,26.61
2022-08-03T23:41:03.531Z,26.56
2022-08-03T23:43:53.578Z,26.54
2022-08-03T23:46:19.839Z,26.51
2022-08-03T23:48:46.646Z,26.45
2022-08-03T23:51:14.629Z,26.42
2022-08-03T23:53:41.939Z,26.39
2022-08-03T23:56:24.716Z,26.34
2022-08-03T23:58:51.709Z,26.27
